Time;durP1;ratioP1;P1;durP2;ratioP2;P2;SDS_P1;SDS_P2;PMS_P1;PMS_P2;Temp;Humidity;BMP_temperature;BMP_pressure;BME280_temperature;BME280_humidity;BME280_pressure;Samples;Min_cycle;Max_cycle;Signal;HPM_P1;HPM_P2
2023/09/30 00:01:43;;;;;;;;;;;;;;;18.03;67.32;98665.25;5025327;28;19925;-64
2023/09/30 00:04:31;;;;;;;;;;;;;;;18.06;67.26;98670.09;5020232;28;20409;-64
2023/09/30 00:07:19;;;;;;;;;;;;;;;18.09;67.35;98670.53;5018127;28;20016;-64
2023/09/30 00:10:08;;;;;;;;;;;;;;;18.06;67.23;98669.28;5030646;28;19925;-64
2023/09/30 00:12:56;;;;;;;;;;;;;;;18.02;67.50;98662.88;5029848;28;19933;-64
2023/09/30 00:15:45;;;;;;;;;;;;;;;18.05;67.44;98662.16;5029660;28;19925;-64
2023/09/30 00:18:33;;;;;;;;;;;;;;;17.99;67.59;98652.53;5027323;28;19933;-63
2023/09/30 00:21:21;;;;;;;;;;;;;;;17.94;67.88;98656.31;5031583;28;19947;-67
2023/09/30 00:24:09;;;;;;;;;;;;;;;17.88;68.26;98657.69;5022623;28;19933;-64
2023/09/30 00:26:57;;;;;;;;;;;;;;;17.92;67.98;98666.06;5030414;28;19960;-64
2023/09/30 00:29:45;;;;;;;;;;;;;;;17.95;67.85;98673.59;5028712;28;20410;-64
2023/09/30 00:32:35;;;;;;;;;;;;;;;18.00;67.46;98676.97;5027061;28;19937;-63
2023/09/30 00:35:23;;;;;;;;;;;;;;;17.98;67.59;98678.44;5008008;28;20034;-64
2023/09/30 00:38:12;;;;;;;;;;;;;;;17.97;67.64;98674.88;5031575;28;20286;-64
2023/09/30 00:41:00;;;;;;;;;;;;;;;17.84;68.18;98667.75;5026745;28;20567;-64
2023/09/30 00:43:48;;;;;;;;;;;;;;;17.78;68.18;98664.41;5027587;28;19925;-64
2023/09/30 00:46:37;;;;;;;;;;;;;;;17.78;68.40;98680.09;5022120;28;20011;-64
2023/09/30 00:49:27;;;;;;;;;;;;;;;17.76;68.50;98668.66;5016299;28;20399;-64
2023/09/30 00:52:14;;;;;;;;;;;;;;;17.73;68.62;98672.06;5020412;28;20094;-64
2023/09/30 00:55:04;;;;;;;;;;;;;;;17.73;68.73;98675.63;5030587;28;20042;-63
2023/09/30 00:57:52;;;;;;;;;;;;;;;17.70;68.87;98673.53;5020762;28;19925;-64
2023/09/30 01:00:40;;;;;;;;;;;;;;;17.66;69.05;98667.09;5015944;28;19936;-64
2023/09/30 01:03:28;;;;;;;;;;;;;;;17.70;68.96;98667.25;5029516;28;20283;-64
2023/09/30 01:06:18;;;;;;;;;;;;;;;17.68;68.99;98664.00;5032401;28;20023;-64
2023/09/30 01:09:06;;;;;;;;;;;;;;;17.71;68.98;98669.63;5025687;28;20038;-64
2023/09/30 01:11:54;;;;;;;;;;;;;;;17.78;68.84;98672.66;5031293;28;19931;-63
2023/09/30 01:14:42;;;;;;;;;;;;;;;17.74;68.95;98669.00;5015214;28;20383;-63
2023/09/30 01:17:30;;;;;;;;;;;;;;;17.72;69.01;98668.53;5029556;28;19933;-64
2023/09/30 01:20:21;;;;;;;;;;;;;;;17.72;69.13;98674.03;5027071;28;19933;-64
2023/09/30 01:23:12;;;;;;;;;;;;;;;17.69;69.24;98671.94;5021886;28;19925;-64
2023/09/30 01:26:03;;;;;;;;;;;;;;;17.60;69.57;98668.47;5029620;28;19932;-63
2023/09/30 01:28:51;;;;;;;;;;;;;;;17.64;69.61;98666.66;5027102;28;19925;-63
2023/09/30 01:31:39;;;;;;;;;;;;;;;17.65;69.53;98670.19;5023558;28;19925;-64
2023/09/30 01:34:27;;;;;;;;;;;;;;;17.70;69.46;98670.78;5028411;28;19990;-64
2023/09/30 01:37:15;;;;;;;;;;;;;;;17.69;69.48;98677.44;5016099;28;19949;-64
2023/09/30 01:40:10;;;;;;;;;;;;;;;17.65;69.80;98672.94;5028452;28;20390;-63
2023/09/30 01:42:58;;;;;;;;;;;;;;;17.66;69.74;98674.56;5026227;28;19929;-64
2023/09/30 01:45:47;;;;;;;;;;;;;;;17.69;69.58;98671.94;5007407;28;19968;-64
2023/09/30 01:48:36;;;;;;;;;;;;;;;17.66;69.83;98666.31;5026591;28;19925;-63
2023/09/30 01:51:24;;;;;;;;;;;;;;;17.68;69.72;98667.56;5025398;28;20342;-64
2023/09/30 01:54:12;;;;;;;;;;;;;;;17.74;69.64;98662.72;5029091;28;20387;-64
2023/09/30 01:57:02;;;;;;;;;;;;;;;17.83;69.34;98670.84;5025701;28;19935;-64
2023/09/30 01:59:51;;;;;;;;;;;;;;;17.87;69.21;98669.03;5013704;28;19925;-63
2023/09/30 02:02:39;;;;;;;;;;;;;;;17.80;69.24;98669.59;5023503;28;20070;-64
2023/09/30 02:05:27;;;;;;;;;;;;;;;17.74;69.56;98674.50;5021684;28;20015;-63
2023/09/30 02:08:18;;;;;;;;;;;;;;;17.65;69.95;98675.69;5010219;28;19925;-64
2023/09/30 02:11:06;;;;;;;;;;;;;;;17.68;69.96;98675.00;5026670;28;20498;-64
2023/09/30 02:13:56;;;;;;;;;;;;;;;17.68;69.99;98673.06;5026584;28;19932;-64
2023/09/30 02:16:44;;;;;;;;;;;;;;;17.70;69.98;98678.22;5015561;28;19936;-63
2023/09/30 02:19:33;;;;;;;;;;;;;;;17.65;70.25;98676.50;5028265;28;20406;-64
2023/09/30 02:22:21;;;;;;;;;;;;;;;17.66;70.32;98678.09;5020869;28;20294;-64
2023/09/30 02:25:10;;;;;;;;;;;;;;;17.64;70.46;98679.59;5023911;28;19936;-64
2023/09/30 02:27:58;;;;;;;;;;;;;;;17.54;71.11;98678.06;5015671;28;19936;-64
2023/09/30 02:30:49;;;;;;;;;;;;;;;17.52;71.35;98672.91;5024144;28;20409;-64
2023/09/30 02:33:38;;;;;;;;;;;;;;;17.53;71.47;98679.22;5024910;28;19925;-64
2023/09/30 02:36:27;;;;;;;;;;;;;;;17.53;71.91;98673.72;5001742;28;19925;-64
2023/09/30 02:39:16;;;;;;;;;;;;;;;17.46;73.01;98667.94;5018361;28;19925;-64
2023/09/30 02:42:04;;;;;;;;;;;;;;;17.40;74.04;98667.38;5022771;28;19933;-63
2023/09/30 02:44:53;;;;;;;;;;;;;;;17.39;74.32;98681.44;5012377;28;19932;-64
2023/09/30 02:47:42;;;;;;;;;;;;;;;17.37;74.61;98687.28;5024663;28;19975;-63
2023/09/30 02:50:30;;;;;;;;;;;;;;;17.24;75.55;98683.66;5028060;28;20007;-64
2023/09/30 02:53:20;;;;;;;;;;;;;;;17.27;75.74;98693.19;5019292;28;20397;-64
2023/09/30 02:56:08;;;;;;;;;;;;;;;17.27;75.75;98693.19;5011060;28;19932;-64
2023/09/30 02:59:00;;;;;;;;;;;;;;;17.20;76.48;98699.19;5012302;28;20421;-63
2023/09/30 03:01:48;;;;;;;;;;;;;;;17.19;76.71;98692.09;5026723;28;19931;-64
2023/09/30 03:04:37;;;;;;;;;;;;;;;17.15;77.01;98698.59;5027887;28;19925;-64
2023/09/30 03:07:25;;;;;;;;;;;;;;;17.19;77.07;98692.09;5014979;28;19991;-64
2023/09/30 03:10:19;;;;;;;;;;;;;;;17.18;77.99;98690.50;5009915;28;20019;-64
2023/09/30 03:13:08;;;;;;;;;;;;;;;17.11;79.27;98687.50;5023140;28;19933;-64
2023/09/30 03:15:57;;;;;;;;;;;;;;;17.10;79.78;98694.13;5008699;28;19929;-64
2023/09/30 03:18:45;;;;;;;;;;;;;;;17.01;81.17;98696.13;5027342;28;20018;-64
2023/09/30 03:21:34;;;;;;;;;;;;;;;17.04;81.86;98695.44;5025680;28;19929;-63
2023/09/30 03:24:23;;;;;;;;;;;;;;;17.03;82.04;98704.81;5018397;28;19956;-65
2023/09/30 03:27:11;;;;;;;;;;;;;;;16.79;81.08;98716.47;5024958;28;19931;-63
2023/09/30 03:30:01;;;;;;;;;;;;;;;16.73;79.86;98718.59;5026085;28;20055;-63
2023/09/30 03:32:49;;;;;;;;;;;;;;;16.71;79.21;98723.59;5028304;28;19944;-63
2023/09/30 03:35:37;;;;;;;;;;;;;;;16.69;78.48;98725.84;5025650;28;19932;-63
2023/09/30 03:38:27;;;;;;;;;;;;;;;16.74;77.83;98727.63;5027164;28;19925;-64
2023/09/30 03:41:15;;;;;;;;;;;;;;;16.65;78.33;98730.38;5024818;28;20008;-64
2023/09/30 03:44:03;;;;;;;;;;;;;;;16.63;78.50;98729.13;5024866;28;20333;-63
2023/09/30 03:46:51;;;;;;;;;;;;;;;16.53;78.98;98733.03;5027395;28;20011;-64
2023/09/30 03:49:39;;;;;;;;;;;;;;;16.55;78.96;98743.66;5027202;28;19931;-63
2023/09/30 03:52:28;;;;;;;;;;;;;;;16.38;78.63;98744.56;5027534;28;19925;-64
2023/09/30 03:55:20;;;;;;;;;;;;;;;16.27;78.34;98740.56;5026465;28;19929;-64
2023/09/30 03:58:09;;;;;;;;;;;;;;;16.26;77.75;98741.72;5026211;28;20075;-63
2023/09/30 04:00:57;;;;;;;;;;;;;;;16.11;77.96;98737.56;5027472;28;19933;-64
2023/09/30 04:03:45;;;;;;;;;;;;;;;16.05;78.42;98738.88;5020834;28;19934;-63
2023/09/30 04:06:33;;;;;;;;;;;;;;;15.95;78.29;98757.28;5023067;28;19929;-64
2023/09/30 04:09:22;;;;;;;;;;;;;;;15.94;78.70;98760.34;5027691;28;19925;-64
2023/09/30 04:12:11;;;;;;;;;;;;;;;15.95;78.41;98761.94;5015423;28;19929;-63
2023/09/30 04:14:59;;;;;;;;;;;;;;;15.93;78.20;98758.75;5016444;28;19933;-63
2023/09/30 04:17:48;;;;;;;;;;;;;;;15.87;77.92;98762.75;5023452;28;19932;-63
2023/09/30 04:20:39;;;;;;;;;;;;;;;15.79;78.52;98763.59;5028105;28;19932;-63
2023/09/30 04:23:27;;;;;;;;;;;;;;;15.78;79.08;98759.25;5021226;28;19925;-63
2023/09/30 04:26:15;;;;;;;;;;;;;;;15.75;79.64;98760.69;5024489;28;19933;-65
2023/09/30 04:29:05;;;;;;;;;;;;;;;15.60;79.78;98764.69;5020965;28;19925;-64
2023/09/30 04:31:54;;;;;;;;;;;;;;;15.67;79.59;98764.25;5018008;28;20351;-64
2023/09/30 04:34:43;;;;;;;;;;;;;;;15.64;79.88;98768.44;5025774;28;19933;-63
2023/09/30 04:37:33;;;;;;;;;;;;;;;15.59;80.01;98768.56;5021441;28;19951;-63
2023/09/30 04:40:21;;;;;;;;;;;;;;;15.58;80.39;98774.38;5022280;28;19925;-63
2023/09/30 04:43:10;;;;;;;;;;;;;;;15.63;79.91;98786.00;5022192;28;19925;-64
2023/09/30 04:46:00;;;;;;;;;;;;;;;15.66;79.89;98785.38;5021561;28;19925;-63
2023/09/30 04:48:48;;;;;;;;;;;;;;;15.57;80.42;98802.91;5025628;28;19971;-63
2023/09/30 04:51:37;;;;;;;;;;;;;;;15.47;80.48;98804.00;5029800;28;19972;-65
2023/09/30 04:54:25;;;;;;;;;;;;;;;15.42;80.50;98798.69;5015650;28;19929;-64
2023/09/30 04:57:13;;;;;;;;;;;;;;;15.48;80.51;98811.09;5022022;28;19929;-65
2023/09/30 05:00:01;;;;;;;;;;;;;;;15.49;80.94;98812.72;5025941;28;20469;-65
2023/09/30 05:02:52;;;;;;;;;;;;;;;15.49;81.17;98809.16;5025367;28;19925;-65
2023/09/30 05:05:41;;;;;;;;;;;;;;;15.45;81.27;98822.72;5030218;28;19931;-64
2023/09/30 05:08:30;;;;;;;;;;;;;;;15.46;81.26;98819.66;5021544;28;19929;-64
2023/09/30 05:11:18;;;;;;;;;;;;;;;15.43;81.70;98833.16;5019536;28;19929;-64
2023/09/30 05:14:06;;;;;;;;;;;;;;;15.39;81.95;98832.19;5021577;28;20524;-64
2023/09/30 05:16:56;;;;;;;;;;;;;;;15.37;82.26;98828.97;5027462;28;19925;-64
2023/09/30 05:19:46;;;;;;;;;;;;;;;15.32;82.27;98835.41;5025380;28;20484;-64
2023/09/30 05:22:34;;;;;;;;;;;;;;;15.31;82.48;98835.72;5025185;28;20412;-65
2023/09/30 05:25:26;;;;;;;;;;;;;;;15.31;83.14;98843.94;5028161;28;19964;-64
2023/09/30 05:28:15;;;;;;;;;;;;;;;15.26;83.50;98836.69;5027823;28;19933;-64
2023/09/30 05:31:03;;;;;;;;;;;;;;;15.27;83.48;98832.81;5021520;28;19933;-64
2023/09/30 05:33:51;;;;;;;;;;;;;;;15.29;83.52;98851.69;5029676;28;19961;-64
2023/09/30 05:36:42;;;;;;;;;;;;;;;15.30;83.22;98848.63;5023036;28;19925;-64
2023/09/30 05:39:31;;;;;;;;;;;;;;;15.26;83.31;98863.25;5026590;28;19968;-64
2023/09/30 05:42:19;;;;;;;;;;;;;;;15.31;83.39;98871.31;5028437;28;20037;-64
2023/09/30 05:45:09;;;;;;;;;;;;;;;15.24;83.83;98877.28;5020595;28;20429;-64
2023/09/30 05:48:02;;;;;;;;;;;;;;;15.32;83.67;98872.94;5028901;28;20142;-64
2023/09/30 05:50:50;;;;;;;;;;;;;;;15.37;83.43;98881.00;5029322;28;19948;-64
2023/09/30 05:53:41;;;;;;;;;;;;;;;15.35;83.58;98869.56;5026347;28;20026;-64
2023/09/30 05:56:29;;;;;;;;;;;;;;;15.31;83.74;98863.09;5017616;28;19960;-64
2023/09/30 05:59:17;;;;;;;;;;;;;;;15.32;83.53;98873.72;5029365;28;20076;-64
2023/09/30 06:02:06;;;;;;;;;;;;;;;15.30;83.69;98883.41;5017510;28;19936;-64
2023/09/30 06:04:56;;;;;;;;;;;;;;;15.30;83.44;98881.47;5029004;28;19933;-64
2023/09/30 06:07:45;;;;;;;;;;;;;;;15.32;83.60;98883.88;5027681;28;20018;-64
2023/09/30 06:10:37;;;;;;;;;;;;;;;15.38;83.31;98877.13;5029609;28;19933;-64
2023/09/30 06:13:27;;;;;;;;;;;;;;;15.38;82.74;98871.66;5006378;28;19929;-64
2023/09/30 06:16:16;;;;;;;;;;;;;;;15.41;82.75;98877.31;5030069;28;19969;-64
2023/09/30 06:19:04;;;;;;;;;;;;;;;15.36;82.79;98879.38;5024865;28;20455;-64
2023/09/30 06:21:52;;;;;;;;;;;;;;;15.42;82.67;98891.78;5020392;28;19933;-64
2023/09/30 06:24:40;;;;;;;;;;;;;;;15.41;82.63;98892.94;5026417;28;19929;-64
2023/09/30 06:27:29;;;;;;;;;;;;;;;15.43;82.87;98896.16;5025955;28;20429;-64
2023/09/30 06:30:19;;;;;;;;;;;;;;;15.41;82.50;98895.66;5021806;28;19932;-64
2023/09/30 06:33:09;;;;;;;;;;;;;;;15.35;82.83;98899.69;5023626;28;19930;-64
2023/09/30 06:36:01;;;;;;;;;;;;;;;15.37;82.71;98914.66;5028602;28;19963;-64
2023/09/30 06:38:50;;;;;;;;;;;;;;;15.45;82.55;98910.34;5023477;28;20398;-64
2023/09/30 06:41:39;;;;;;;;;;;;;;;15.46;82.45;98912.75;5023992;28;20305;-63
2023/09/30 06:44:31;;;;;;;;;;;;;;;15.49;82.73;98914.03;5009401;28;19947;-64
2023/09/30 06:47:20;;;;;;;;;;;;;;;15.58;82.43;98905.84;5025783;28;19932;-65
2023/09/30 06:50:09;;;;;;;;;;;;;;;15.61;82.18;98905.22;5028362;28;19925;-64
2023/09/30 06:52:57;;;;;;;;;;;;;;;15.63;82.17;98917.47;5022151;28;20483;-64
2023/09/30 06:55:45;;;;;;;;;;;;;;;15.70;82.29;98934.25;5026499;28;20326;-64
2023/09/30 06:58:34;;;;;;;;;;;;;;;15.70;82.03;98934.25;5020116;28;19933;-63
2023/09/30 07:01:23;;;;;;;;;;;;;;;15.75;82.04;98936.03;5025821;28;19925;-64
2023/09/30 07:04:11;;;;;;;;;;;;;;;15.77;81.91;98936.53;5026886;28;20325;-64
2023/09/30 07:06:59;;;;;;;;;;;;;;;15.78;81.71;98934.59;5025287;28;19932;-65
2023/09/30 07:09:48;;;;;;;;;;;;;;;15.78;82.00;98934.59;5027135;28;19926;-64
2023/09/30 07:12:36;;;;;;;;;;;;;;;15.82;81.75;98932.81;5022131;28;19924;-65
2023/09/30 07:15:24;;;;;;;;;;;;;;;15.87;81.62;98938.13;5028463;28;20378;-64
2023/09/30 07:18:14;;;;;;;;;;;;;;;15.85;80.82;98938.47;5029696;28;19972;-64
2023/09/30 07:21:02;;;;;;;;;;;;;;;15.81;81.37;98944.91;5027569;28;19932;-64
2023/09/30 07:23:50;;;;;;;;;;;;;;;15.81;80.93;98950.38;5018267;28;19934;-64
2023/09/30 07:26:38;;;;;;;;;;;;;;;15.90;81.15;98957.50;5028290;28;19952;-65
2023/09/30 07:29:26;;;;;;;;;;;;;;;15.94;80.54;98952.97;5029108;28;20362;-64
2023/09/30 07:32:15;;;;;;;;;;;;;;;15.97;80.31;98954.25;5028891;28;19972;-64
2023/09/30 07:35:06;;;;;;;;;;;;;;;15.93;79.59;98964.28;5027634;28;19929;-64
2023/09/30 07:37:57;;;;;;;;;;;;;;;16.02;79.46;98967.00;5013119;28;19930;-64
2023/09/30 07:40:46;;;;;;;;;;;;;;;16.02;79.75;98972.50;5016497;28;19932;-64
2023/09/30 07:43:35;;;;;;;;;;;;;;;15.94;80.01;98969.44;5026340;28;19933;-64
2023/09/30 07:46:23;;;;;;;;;;;;;;;15.90;79.94;98971.19;5012743;28;19937;-65
2023/09/30 07:49:12;;;;;;;;;;;;;;;15.81;80.56;98980.53;5022916;28;19925;-65
2023/09/30 07:52:01;;;;;;;;;;;;;;;15.80;80.59;98984.38;5024771;28;19933;-64
2023/09/30 07:54:49;;;;;;;;;;;;;;;15.85;80.77;98978.75;5010026;28;19929;-65
2023/09/30 07:57:38;;;;;;;;;;;;;;;15.88;80.55;98976.19;5021037;28;20039;-64
2023/09/30 08:00:26;;;;;;;;;;;;;;;15.87;80.34;98977.31;5027062;28;20346;-64
2023/09/30 08:03:14;;;;;;;;;;;;;;;15.90;80.11;98986.81;5022741;28;20417;-64
2023/09/30 08:06:03;;;;;;;;;;;;;;;15.96;79.63;98985.53;5027326;28;19940;-65
2023/09/30 08:08:53;;;;;;;;;;;;;;;15.97;79.75;98981.66;5025678;28;19951;-64
2023/09/30 08:11:40;;;;;;;;;;;;;;;15.93;79.02;98987.00;5025334;28;20036;-64
2023/09/30 08:14:28;;;;;;;;;;;;;;;15.99;79.19;98984.91;5020305;28;19926;-64
2023/09/30 08:17:17;;;;;;;;;;;;;;;16.07;78.83;98988.78;5026069;28;19925;-64
2023/09/30 08:20:05;;;;;;;;;;;;;;;16.06;78.42;98987.97;5026475;28;20309;-65
2023/09/30 08:22:54;;;;;;;;;;;;;;;15.92;78.63;98999.06;5018562;28;20067;-65
2023/09/30 08:25:44;;;;;;;;;;;;;;;15.85;78.50;98992.47;5012831;28;19958;-64
2023/09/30 08:28:32;;;;;;;;;;;;;;;15.89;78.26;98996.19;5025764;28;19978;-65
2023/09/30 08:31:21;;;;;;;;;;;;;;;15.89;78.77;98999.72;5023005;28;19979;-64
2023/09/30 08:34:09;;;;;;;;;;;;;;;15.94;78.03;98990.56;5027924;28;20038;-64
2023/09/30 08:36:58;;;;;;;;;;;;;;;16.00;78.13;98991.19;5026783;28;19936;-64
2023/09/30 08:39:47;;;;;;;;;;;;;;;16.07;77.88;99006.03;5036234;28;19925;-64
2023/09/30 08:42:36;;;;;;;;;;;;;;;16.10;78.03;99001.84;5028498;28;20387;-64
2023/09/30 08:45:24;;;;;;;;;;;;;;;16.15;76.74;98999.75;5027786;28;20322;-64
2023/09/30 08:48:12;;;;;;;;;;;;;;;16.18;76.81;98999.09;5023266;28;19925;-64
2023/09/30 08:51:00;;;;;;;;;;;;;;;16.15;76.09;98999.75;5024394;28;19926;-64
2023/09/30 08:53:49;;;;;;;;;;;;;;;16.21;74.78;99001.22;5019918;28;20032;-64
2023/09/30 08:56:37;;;;;;;;;;;;;;;16.23;73.56;98993.47;5029928;28;20650;-65
2023/09/30 08:59:27;;;;;;;;;;;;;;;16.30;72.90;98989.44;5029173;28;19968;-64
2023/09/30 09:02:14;;;;;;;;;;;;;;;16.24;71.95;98981.41;5021900;28;19977;-64
2023/09/30 09:05:03;;;;;;;;;;;;;;;16.33;72.44;98984.13;5022473;28;19959;-64
2023/09/30 09:07:51;;;;;;;;;;;;;;;16.40;72.16;98989.09;5024976;28;19929;-64
2023/09/30 09:10:45;;;;;;;;;;;;;;;16.27;71.69;98992.84;5023709;28;20472;-64
2023/09/30 09:13:45;;;;;;;;;;;;;;;16.27;71.76;98992.84;5018206;28;20036;-64
2023/09/30 09:16:35;;;;;;;;;;;;;;;16.31;71.93;98982.84;5031341;28;19925;-64
2023/09/30 09:19:23;;;;;;;;;;;;;;;16.46;71.53;98977.69;5031806;28;19933;-64
2023/09/30 09:22:12;;;;;;;;;;;;;;;16.58;71.54;98973.47;5029894;28;20063;-66
2023/09/30 09:25:00;;;;;;;;;;;;;;;16.62;70.69;98977.16;5028739;28;19925;-64
2023/09/30 09:27:48;;;;;;;;;;;;;;;16.71;70.56;98970.56;5020131;28;19925;-64
2023/09/30 09:30:38;;;;;;;;;;;;;;;16.74;70.11;98966.38;5014001;28;19929;-64
2023/09/30 09:33:33;;;;;;;;;;;;;;;16.85;69.84;98967.63;5030331;28;20004;-64
2023/09/30 09:36:23;;;;;;;;;;;;;;;16.79;68.42;98970.88;5019830;28;20008;-64
2023/09/30 09:39:13;;;;;;;;;;;;;;;16.72;69.06;98968.59;5022768;28;19925;-64
2023/09/30 09:42:01;;;;;;;;;;;;;;;16.69;68.61;98972.78;5028280;28;19940;-64
2023/09/30 09:44:50;;;;;;;;;;;;;;;16.73;68.44;98976.53;5030686;28;19925;-64
2023/09/30 09:47:38;;;;;;;;;;;;;;;16.82;68.42;98970.22;5030490;28;19925;-64
2023/09/30 09:50:27;;;;;;;;;;;;;;;16.91;68.45;98977.28;5030665;28;19929;-64
2023/09/30 09:53:16;;;;;;;;;;;;;;;16.97;67.91;98970.50;5031207;28;19929;-64
2023/09/30 09:56:04;;;;;;;;;;;;;;;17.08;67.84;98968.19;5021044;28;19932;-64
2023/09/30 09:58:52;;;;;;;;;;;;;;;17.14;66.39;98977.84;5025508;28;19951;-64
2023/09/30 10:01:41;;;;;;;;;;;;;;;17.09;61.25;98971.75;5029645;28;20446;-64
2023/09/30 10:04:29;;;;;;;;;;;;;;;17.11;63.01;98967.56;5021522;28;20424;-64
2023/09/30 10:07:20;;;;;;;;;;;;;;;17.17;62.71;98966.22;5029893;28;20074;-64
2023/09/30 10:10:14;;;;;;;;;;;;;;;17.15;62.09;98973.16;5016852;28;19931;-64
2023/09/30 10:13:03;;;;;;;;;;;;;;;17.14;62.73;98974.31;5029388;28;19983;-64
2023/09/30 10:15:51;;;;;;;;;;;;;;;17.17;62.95;98979.97;5029527;28;19925;-64
2023/09/30 10:18:55;;;;;;;;;;;;;;;17.20;63.83;98993.00;5022630;28;20538;-63
2023/09/30 10:21:58;;;;;;;;;;;;;;;17.20;64.31;98995.75;5025374;28;19925;-63
2023/09/30 10:24:48;;;;;;;;;;;;;;;17.26;64.15;99002.72;5019210;28;19938;-63
2023/09/30 10:27:39;;;;;;;;;;;;;;;17.32;64.46;99011.56;5025570;28;19925;-63
2023/09/30 10:30:28;;;;;;;;;;;;;;;17.32;64.12;99008.03;5026557;28;20431;-63
2023/09/30 10:33:16;;;;;;;;;;;;;;;17.29;63.17;99015.78;5023576;28;19929;-63
2023/09/30 10:36:05;;;;;;;;;;;;;;;17.30;62.92;99016.56;5020927;28;20383;-63
2023/09/30 10:38:54;;;;;;;;;;;;;;;17.15;62.79;99009.69;5013151;28;20444;-63
2023/09/30 10:41:52;;;;;;;;;;;;;;;17.19;62.75;99016.13;5026179;28;20603;-63
2023/09/30 10:44:40;;;;;;;;;;;;;;;17.18;63.52;99006.28;5029410;28;19929;-63
2023/09/30 10:47:35;;;;;;;;;;;;;;;17.22;62.20;99004.50;5023408;28;19932;-63
2023/09/30 10:50:42;;;;;;;;;;;;;;;17.22;61.64;99010.00;5022238;28;19983;-62
2023/09/30 10:53:30;;;;;;;;;;;;;;;17.22;62.02;99001.75;5019383;28;19925;-63
2023/09/30 10:56:18;;;;;;;;;;;;;;;17.23;62.26;99005.31;5025234;28;20012;-63
2023/09/30 10:59:09;;;;;;;;;;;;;;;17.24;61.51;99001.41;5027101;28;20032;-65
2023/09/30 11:01:57;;;;;;;;;;;;;;;17.17;61.52;98985.44;5024466;28;19929;-63
2023/09/30 11:04:49;;;;;;;;;;;;;;;17.27;61.07;98998.03;5024773;28;20037;-63
2023/09/30 11:07:37;;;;;;;;;;;;;;;17.30;60.01;98989.09;5027159;28;20859;-63
2023/09/30 11:10:27;;;;;;;;;;;;;;;17.28;59.18;98986.69;5025258;28;20012;-63
2023/09/30 11:13:15;;;;;;;;;;;;;;;17.33;59.34;98982.16;5026227;28;20034;-63
2023/09/30 11:16:05;;;;;;;;;;;;;;;17.38;59.34;98980.03;5024193;28;19929;-63
2023/09/30 11:18:54;;;;;;;;;;;;;;;17.36;57.89;98973.25;5026363;28;20314;-63
2023/09/30 11:21:43;;;;;;;;;;;;;;;17.42;58.71;98977.44;5027211;28;20721;-63
2023/09/30 11:24:33;;;;;;;;;;;;;;;17.49;58.41;98966.75;5018061;28;20023;-63
2023/09/30 11:27:26;;;;;;;;;;;;;;;17.46;56.74;98964.63;5024889;28;20071;-63
2023/09/30 11:30:14;;;;;;;;;;;;;;;17.50;56.15;98960.09;5022479;28;19932;-63
2023/09/30 11:33:04;;;;;;;;;;;;;;;17.43;55.18;98960.63;5016042;28;19933;-64
2023/09/30 11:36:00;;;;;;;;;;;;;;;17.45;55.86;98963.84;5016201;28;20030;-63
2023/09/30 11:38:49;;;;;;;;;;;;;;;17.45;55.99;98963.84;5015031;28;20028;-63
2023/09/30 11:41:41;;;;;;;;;;;;;;;17.43;55.91;98960.63;5011881;28;19930;-63
2023/09/30 11:44:30;;;;;;;;;;;;;;;17.47;55.83;98958.00;5011498;28;20003;-63
2023/09/30 11:47:29;;;;;;;;;;;;;;;17.51;55.97;98956.22;5013257;28;19925;-63
2023/09/30 11:50:19;;;;;;;;;;;;;;;17.51;55.85;98961.72;5014006;28;19929;-62
2023/09/30 11:53:07;;;;;;;;;;;;;;;17.49;55.08;98964.00;5013363;28;19975;-63
2023/09/30 11:55:55;;;;;;;;;;;;;;;17.51;55.62;98962.50;5016334;28;20067;-63
2023/09/30 11:58:43;;;;;;;;;;;;;;;17.53;55.76;98960.25;5012762;28;19936;-62
2023/09/30 12:01:34;;;;;;;;;;;;;;;17.58;55.74;98955.69;5015243;28;19934;-62
2023/09/30 12:04:22;;;;;;;;;;;;;;;17.58;55.61;98967.50;5018632;28;19925;-62
2023/09/30 12:07:11;;;;;;;;;;;;;;;17.60;56.05;98962.47;5016314;28;19929;-62
2023/09/30 12:10:00;;;;;;;;;;;;;;;17.64;56.32;98965.38;5023836;28;19925;-63
2023/09/30 12:12:48;;;;;;;;;;;;;;;17.69;56.55;98976.97;5032598;28;21766;-62
2023/09/30 12:15:36;;;;;;;;;;;;;;;17.71;56.78;98968.41;5029150;28;19925;-63
2023/09/30 12:18:24;;;;;;;;;;;;;;;17.58;56.31;98958.44;5024390;28;19960;-63
2023/09/30 12:21:13;;;;;;;;;;;;;;;17.71;56.83;98954.66;5025751;28;19933;-62
2023/09/30 12:24:03;;;;;;;;;;;;;;;17.75;56.63;98950.94;5028195;28;19933;-63
2023/09/30 12:26:52;;;;;;;;;;;;;;;17.77;56.54;98954.16;5030128;28;20056;-62
2023/09/30 12:29:40;;;;;;;;;;;;;;;17.80;56.48;98945.25;5019652;28;19972;-62
2023/09/30 12:32:28;;;;;;;;;;;;;;;17.86;56.24;98939.56;5028788;28;19925;-62
2023/09/30 12:35:17;;;;;;;;;;;;;;;17.91;56.70;98936.59;5019058;28;20269;-62
2023/09/30 12:38:05;;;;;;;;;;;;;;;17.96;56.52;98933.66;5022744;28;20369;-62
2023/09/30 12:40:54;;;;;;;;;;;;;;;17.98;55.68;98931.38;5030471;28;19933;-63
2023/09/30 12:43:42;;;;;;;;;;;;;;;17.99;56.11;98933.78;5019765;28;20786;-62
2023/09/30 12:46:30;;;;;;;;;;;;;;;17.90;54.86;98930.31;5021348;28;19933;-62
2023/09/30 12:49:20;;;;;;;;;;;;;;;17.92;54.85;98929.97;5023999;28;19937;-62
2023/09/30 12:52:08;;;;;;;;;;;;;;;17.90;55.12;98935.00;5030836;28;19929;-63
2023/09/30 12:54:56;;;;;;;;;;;;;;;17.96;54.55;98944.66;5021648;28;19929;-62
2023/09/30 12:57:45;;;;;;;;;;;;;;;17.97;54.13;98940.75;5029431;28;20702;-63
2023/09/30 13:00:33;;;;;;;;;;;;;;;17.98;53.30;98926.69;5029731;28;20010;-63
2023/09/30 13:03:21;;;;;;;;;;;;;;;18.00;53.47;98918.91;5026971;28;19925;-63
2023/09/30 13:06:10;;;;;;;;;;;;;;;18.00;53.34;98924.41;5022994;28;20568;-62
2023/09/30 13:08:58;;;;;;;;;;;;;;;18.01;53.98;98920.50;5029307;28;19932;-63
2023/09/30 13:11:47;;;;;;;;;;;;;;;18.03;53.80;98911.91;5029873;28;20468;-63
2023/09/30 13:14:38;;;;;;;;;;;;;;;18.09;54.14;98920.78;5026300;28;19931;-63
2023/09/30 13:17:26;;;;;;;;;;;;;;;18.09;53.96;98916.06;5030578;28;19929;-62
2023/09/30 13:20:14;;;;;;;;;;;;;;;18.14;54.14;98913.13;5026846;28;19929;-63
2023/09/30 13:23:03;;;;;;;;;;;;;;;18.11;53.49;98916.56;5019627;28;19926;-65
2023/09/30 13:25:51;;;;;;;;;;;;;;;18.15;53.69;98914.72;5028864;28;19955;-63
2023/09/30 13:28:39;;;;;;;;;;;;;;;18.14;52.76;98907.63;5031388;28;20036;-63
2023/09/30 13:31:30;;;;;;;;;;;;;;;18.17;53.06;98901.47;5028953;28;20018;-63
2023/09/30 13:34:18;;;;;;;;;;;;;;;18.19;53.17;98901.91;5031024;28;19933;-62
2023/09/30 13:37:07;;;;;;;;;;;;;;;18.16;52.24;98897.06;5021904;28;19952;-63
2023/09/30 13:39:58;;;;;;;;;;;;;;;18.21;52.64;98893.31;5021648;28;20673;-63
2023/09/30 13:42:46;;;;;;;;;;;;;;;18.26;52.97;98893.91;5030392;28;19936;-63
2023/09/30 13:45:34;;;;;;;;;;;;;;;18.28;52.74;98891.66;5026605;28;20069;-62
2023/09/30 13:48:24;;;;;;;;;;;;;;;18.30;52.65;98894.03;5024982;28;20295;-64
2023/09/30 13:51:13;;;;;;;;;;;;;;;18.30;52.15;98894.03;5028314;28;20256;-62
2023/09/30 13:54:01;;;;;;;;;;;;;;;18.33;52.41;98898.88;5022464;28;19926;-63
2023/09/30 13:56:49;;;;;;;;;;;;;;;18.35;50.97;98887.53;5030935;28;19928;-62
2023/09/30 13:59:37;;;;;;;;;;;;;;;18.37;51.29;98893.50;5027197;28;19935;-62
2023/09/30 14:02:25;;;;;;;;;;;;;;;18.34;50.80;98894.97;5024589;28;19932;-62
2023/09/30 14:05:15;;;;;;;;;;;;;;;18.33;50.68;98891.44;5026136;28;20467;-62
2023/09/30 14:08:03;;;;;;;;;;;;;;;18.35;51.50;98893.03;5019994;28;19926;-63
2023/09/30 14:10:52;;;;;;;;;;;;;;;18.36;51.44;98881.69;5024505;28;20008;-63
2023/09/30 14:13:40;;;;;;;;;;;;;;;18.38;51.72;98878.63;5026528;28;19952;-64
2023/09/30 14:16:32;;;;;;;;;;;;;;;18.37;51.52;98877.78;5025411;28;19967;-63
2023/09/30 14:19:24;;;;;;;;;;;;;;;18.39;51.62;98882.97;5027862;28;19932;-63
2023/09/30 14:22:13;;;;;;;;;;;;;;;18.44;52.13;98891.00;5025306;28;19925;-64
2023/09/30 14:25:02;;;;;;;;;;;;;;;18.49;52.20;98885.28;5021332;28;20016;-63
2023/09/30 14:27:50;;;;;;;;;;;;;;;18.49;51.73;98882.53;5025331;28;19947;-63
2023/09/30 14:30:39;;;;;;;;;;;;;;;18.45;51.71;98889.88;5027187;28;19933;-63
2023/09/30 14:33:27;;;;;;;;;;;;;;;18.44;51.75;98889.06;5024989;28;19925;-64
2023/09/30 14:36:15;;;;;;;;;;;;;;;18.45;51.79;98884.34;5027718;28;19925;-63
2023/09/30 14:39:05;;;;;;;;;;;;;;;18.45;51.50;98878.84;5022674;28;20022;-63
2023/09/30 14:42:01;;;;;;;;;;;;;;;18.48;51.89;98875.41;5024374;28;19956;-63